Monday, November 20, 2017, 4:21 AM EST

KOFP, Hanover County Municipal

Location: Ashland, VA, United States Lat: 37.7
Local Time: 4:21 AM EST ( 9:21 GMT) Lon: -77.433
Time Zone: US/Eastern Elev: 203 ft

Show me the last for .
Show Decoded

2017-11-20 03:54 METAR KOFP 200854Z AUTO 00000KT 10SM CLR M01/M03 A3009 RMK AO2 SLP190 T10061033
                 51019 =
2017-11-20 02:54 METAR KOFP 200754Z AUTO 00000KT 10SM CLR 02/M03 A3008 RMK AO2 SLP187 T00171033 =
2017-11-20 01:54 METAR KOFP 200654Z AUTO 24004KT 10SM CLR 03/M04 A3007 RMK AO2 SLP182 T00281039 =
2017-11-20 00:54 METAR KOFP 200554Z AUTO 24005KT 10SM CLR 04/M04 A3004 RMK AO2 SLP171 T00391039
                 10078 20033 53016 =
2017-11-19 23:54 METAR KOFP 200454Z AUTO 21004KT 10SM CLR 04/M04 A3002 RMK AO2 SLP164 T00391039
                 401830033 =
2017-11-19 22:54 METAR KOFP 200354Z AUTO 19004KT 10SM OVC065 04/M03 A3000 RMK AO2 SLP160
                 T00441033 =
2017-11-19 21:54 METAR KOFP 200254Z AUTO 00000KT 10SM CLR 04/M05 A2999 RMK AO2 SLP156 T00441050
                 51025 =
2017-11-19 20:54 METAR KOFP 200154Z AUTO 30008KT 10SM CLR 07/M06 A2996 RMK AO2 SLP146 T00671056 =
2017-11-19 19:54 METAR KOFP 200054Z AUTO 30010G16KT 10SM CLR 07/M04 A2995 RMK AO2 SLP141
                 T00721039 =
2017-11-19 18:54 METAR KOFP 192354Z AUTO 30005KT 10SM FEW070 08/M03 A2992 RMK AO2 SLP130
                 T00781033 10144 20078 53038 =
2017-11-19 17:54 METAR KOFP 192254Z AUTO 31008KT 10SM SCT070 08/M03 A2988 RMK AO2 SLP116
                 T00831033 =
2017-11-19 16:54 METAR KOFP 192154Z AUTO 31009G15KT 10SM SCT075 10/M03 A2984 RMK AO2 SLP104
                 T01001033 =
2017-11-19 15:54 METAR KOFP 192054Z AUTO 31013G21KT 290V010 10SM CLR 12/M03 A2980 RMK AO2 SLP092
                 T01171028 53020 =
2017-11-19 14:54 METAR KOFP 191954Z AUTO 31014G20KT 10SM FEW070 13/M03 A2976 RMK AO2 SLP078
                 T01331028 =
2017-11-19 13:54 METAR KOFP 191854Z AUTO 31014G21KT 10SM CLR 13/M03 A2976 RMK AO2 PK WND
                 30026/1824 SLP075 T01331033 =
2017-11-19 12:54 METAR KOFP 191754Z AUTO 27014G24KT 10SM CLR 14/M02 A2975 RMK AO2 SLP072
                 T01441022 10144 20117 50006 =
2017-11-19 11:54 METAR KOFP 191654Z AUTO 26016G23KT 10SM CLR 14/M02 A2975 RMK AO2 SLP073
                 T01391022 =
2017-11-19 10:54 METAR KOFP 191554Z AUTO 31014G22KT 10SM CLR 13/M02 A2976 RMK AO2 SLP077
                 T01331017 =
2017-11-19 09:54 METAR KOFP 191454Z AUTO 28011G19KT 10SM CLR 13/00 A2973 RMK AO2 SLP065 T01280000
                 51042 =
2017-11-19 08:54 METAR KOFP 191354Z AUTO 28013KT 10SM CLR 12/00 A2970 RMK AO2 SLP055 T01220000 =
2017-11-19 07:54 METAR KOFP 191254Z AUTO 29016G23KT 10SM CLR 12/00 A2966 RMK AO2 PK WND
                 29028/1214 SLP043 T01170000 =
2017-11-19 06:54 METAR KOFP 191154Z AUTO 30018G25KT 10SM CLR 13/03 A2960 RMK AO2 PRESRR SLP023
                 60000 T01330028 10183 20133 53061 =
2017-11-19 05:54 METAR KOFP 191054Z AUTO 27016G32KT 10SM BKN040 16/06 A2952 RMK AO2 PK WND
                 27032/1049 PRESRR SLP995 T01560061 =
2017-11-19 04:54 METAR KOFP 190954Z AUTO 23013G23KT 10SM FEW027 BKN047 OVC070 17/13 A2946 RMK AO2
                 PK WND 20027/0929 RAB21E46 SLP976 P0000 T01670128 =

Support USWX by starting your Amazon purchase here.